createdAt,value
2023-03-18T00:00:52.351Z,100350.97
2023-03-18T00:03:20.489Z,100377.06
2023-03-18T00:05:48.816Z,100391.94
2023-03-18T00:08:16.997Z,100384.03
2023-03-18T00:10:45.141Z,100364.28
2023-03-18T00:13:13.496Z,100374.25
2023-03-18T00:15:41.489Z,100344.34
2023-03-18T00:18:10.070Z,100316.63
2023-03-18T00:20:40.459Z,100372.00
2023-03-18T00:23:09.036Z,100316.09
2023-03-18T00:25:39.161Z,100377.66
2023-03-18T00:28:07.827Z,100346.69
2023-03-18T00:30:39.154Z,100292.78
2023-03-18T00:33:07.486Z,100355.06
2023-03-18T00:35:36.629Z,100362.41
2023-03-18T00:38:07.803Z,100365.16
2023-03-18T00:41:06.345Z,100358.25
2023-03-18T00:43:46.295Z,100380.38
2023-03-18T00:46:19.004Z,100317.41
2023-03-18T00:48:47.648Z,100322.06
2023-03-18T00:51:17.862Z,100348.97
2023-03-18T00:53:48.277Z,100313.91
2023-03-18T00:56:18.291Z,100308.44
2023-03-18T00:58:47.740Z,100357.47
2023-03-18T01:01:17.987Z,100343.53
2023-03-18T01:03:49.719Z,100296.31
2023-03-18T01:06:25.370Z,100351.22
2023-03-18T01:08:54.325Z,100330.34
2023-03-18T01:11:23.643Z,100355.38
2023-03-18T01:13:53.244Z,100356.97
2023-03-18T01:16:22.989Z,100301.50
2023-03-18T01:18:51.286Z,100343.53
2023-03-18T01:21:20.224Z,100347.25
2023-03-18T01:23:54.673Z,100362.28
2023-03-18T01:26:24.444Z,100342.41
2023-03-18T01:28:53.538Z,100321.31
2023-03-18T01:31:26.467Z,100314.84
2023-03-18T01:33:58.601Z,100214.50
2023-03-18T01:36:26.472Z,100341.25
2023-03-18T01:39:08.485Z,100318.09
2023-03-18T01:41:37.936Z,100333.88
2023-03-18T01:44:22.516Z,100317.91
2023-03-18T01:46:53.690Z,100316.75
2023-03-18T01:49:31.245Z,100317.25
2023-03-18T01:52:20.634Z,100311.88
2023-03-18T01:55:12.911Z,100289.84
2023-03-18T01:57:43.295Z,100277.50
2023-03-18T02:00:12.785Z,100305.41
2023-03-18T02:02:48.298Z,100275.22
2023-03-18T02:05:21.296Z,100297.31
2023-03-18T02:07:49.829Z,100282.72
2023-03-18T02:10:30.660Z,100247.66
2023-03-18T02:13:07.973Z,100228.78
2023-03-18T02:16:08.160Z,100284.22
2023-03-18T02:18:43.399Z,100275.03
2023-03-18T02:21:31.234Z,100278.88
2023-03-18T02:24:17.977Z,100275.13
2023-03-18T02:26:59.873Z,100231.13
2023-03-18T02:29:37.467Z,100233.53
2023-03-18T02:32:13.701Z,100271.00
2023-03-18T02:34:43.424Z,100272.94
2023-03-18T02:37:12.093Z,100276.72
2023-03-18T02:39:42.426Z,100270.88
2023-03-18T02:42:14.671Z,100281.38
2023-03-18T02:44:50.058Z,100270.78
2023-03-18T02:47:43.117Z,100252.59
2023-03-18T02:50:11.761Z,100271.47
2023-03-18T02:52:39.924Z,100230.63
2023-03-18T02:55:09.179Z,100263.41
2023-03-18T02:57:37.298Z,100213.28
2023-03-18T03:00:05.962Z,100241.34
2023-03-18T03:02:34.130Z,100198.28
2023-03-18T03:05:02.385Z,100269.34
2023-03-18T03:07:31.478Z,100167.38
2023-03-18T03:10:03.595Z,100266.00
2023-03-18T03:12:31.759Z,100263.91
2023-03-18T03:15:01.273Z,100245.03
2023-03-18T03:17:32.089Z,100257.94
2023-03-18T03:20:00.417Z,100264.78
2023-03-18T03:22:30.401Z,100268.03
2023-03-18T03:24:58.752Z,100268.84
2023-03-18T03:27:26.570Z,100242.44
2023-03-18T03:29:55.925Z,100238.88
2023-03-18T03:32:24.283Z,100268.53
2023-03-18T03:34:52.438Z,100265.53
2023-03-18T03:37:20.238Z,100277.06
2023-03-18T03:39:49.245Z,100269.56
2023-03-18T03:42:17.066Z,100280.91
2023-03-18T03:44:46.683Z,100240.47
2023-03-18T03:47:16.466Z,100250.69
2023-03-18T03:49:44.209Z,100242.31
2023-03-18T03:52:13.103Z,100274.84
2023-03-18T03:54:42.816Z,100230.41
2023-03-18T03:57:11.521Z,100250.22
2023-03-18T03:59:39.525Z,100252.94
2023-03-18T04:02:30.714Z,100248.81
2023-03-18T04:05:02.772Z,100226.22
2023-03-18T04:07:31.881Z,100166.38
2023-03-18T04:09:59.627Z,100180.31
2023-03-18T04:12:27.297Z,100259.94
2023-03-18T04:15:00.859Z,100236.69
2023-03-18T04:17:28.930Z,100211.69
2023-03-18T04:19:57.085Z,100176.78
2023-03-18T04:22:33.722Z,100235.31
2023-03-18T04:25:11.427Z,100250.06
2023-03-18T04:27:41.795Z,100256.31
2023-03-18T04:30:15.617Z,100258.53
2023-03-18T04:32:55.483Z,100247.00
2023-03-18T04:35:23.895Z,100252.06
2023-03-18T04:37:52.672Z,100265.38
2023-03-18T04:40:21.392Z,100258.41
2023-03-18T04:42:49.477Z,100251.28
2023-03-18T04:45:23.067Z,100238.03
2023-03-18T04:47:51.452Z,100220.53
2023-03-18T04:50:19.578Z,100248.13
2023-03-18T04:52:48.532Z,100140.81
2023-03-18T04:55:20.745Z,100257.38
2023-03-18T04:57:48.893Z,100218.63
2023-03-18T05:00:23.920Z,100254.00
2023-03-18T05:02:59.826Z,100254.44
2023-03-18T05:05:28.145Z,100249.66
2023-03-18T05:07:57.025Z,100257.44
2023-03-18T05:10:25.246Z,100260.91
2023-03-18T05:12:53.013Z,100260.91
2023-03-18T05:15:28.862Z,100262.53
2023-03-18T05:17:59.777Z,100184.59
2023-03-18T05:20:29.056Z,100258.84
2023-03-18T05:22:57.379Z,100253.69
2023-03-18T05:25:51.895Z,100229.50
2023-03-18T05:28:22.051Z,100235.94
2023-03-18T05:31:10.293Z,100252.69
2023-03-18T05:33:53.347Z,100237.81
2023-03-18T05:36:22.552Z,100262.03
2023-03-18T05:38:59.531Z,100192.00
2023-03-18T05:41:27.802Z,100281.63
2023-03-18T05:43:55.644Z,100274.56
2023-03-18T05:46:23.933Z,100263.34
2023-03-18T05:49:15.122Z,100250.16
2023-03-18T05:52:04.574Z,100286.28
2023-03-18T05:54:41.966Z,100238.97
2023-03-18T05:57:13.402Z,100307.22
2023-03-18T05:59:41.515Z,100250.06
2023-03-18T06:02:11.935Z,100149.34
2023-03-18T06:04:40.446Z,100293.59
2023-03-18T06:07:08.554Z,100301.75
2023-03-18T06:09:37.080Z,100292.50
2023-03-18T06:12:06.483Z,100304.66
2023-03-18T06:14:34.279Z,100269.53
2023-03-18T06:17:04.724Z,100303.06
2023-03-18T06:19:32.550Z,100237.78
2023-03-18T06:22:00.473Z,100294.91
2023-03-18T06:24:28.857Z,100289.97
2023-03-18T06:26:57.915Z,100290.56
2023-03-18T06:29:26.862Z,100234.69
2023-03-18T06:31:58.752Z,100299.94
2023-03-18T06:34:27.772Z,100318.91
2023-03-18T06:36:57.153Z,100273.38
2023-03-18T06:39:25.403Z,100283.81
2023-03-18T06:41:55.074Z,100283.28
2023-03-18T06:44:53.347Z,100326.72
2023-03-18T06:47:28.629Z,100310.00
2023-03-18T06:49:58.497Z,100322.00
2023-03-18T06:52:38.581Z,100326.66
2023-03-18T06:55:11.977Z,100301.63
2023-03-18T06:57:43.505Z,100344.59
2023-03-18T07:00:12.937Z,100338.09
2023-03-18T07:02:43.526Z,100321.03
2023-03-18T07:05:14.904Z,100338.03
2023-03-18T07:07:44.273Z,100320.06
2023-03-18T07:10:22.807Z,100305.50
2023-03-18T07:12:52.535Z,100331.41
2023-03-18T07:15:24.883Z,100314.44
2023-03-18T07:17:55.376Z,100201.63
2023-03-18T07:20:24.398Z,100357.28
2023-03-18T07:22:52.726Z,100359.22
2023-03-18T07:25:22.531Z,100339.50
2023-03-18T07:27:52.297Z,100333.81
2023-03-18T07:30:20.320Z,100357.53
2023-03-18T07:32:48.338Z,100344.13
2023-03-18T07:35:16.352Z,100329.44
2023-03-18T07:37:44.300Z,100326.72
2023-03-18T07:40:13.223Z,100368.25
2023-03-18T07:42:42.450Z,100339.16
2023-03-18T07:45:10.769Z,100372.59
2023-03-18T07:47:39.127Z,100355.47
2023-03-18T07:50:08.861Z,100362.63
2023-03-18T07:52:37.554Z,100375.56
2023-03-18T07:55:06.275Z,100388.31
2023-03-18T07:57:34.221Z,100387.25
2023-03-18T08:00:02.382Z,100391.88
2023-03-18T08:02:41.604Z,100348.53
2023-03-18T08:05:10.156Z,100399.75
2023-03-18T08:07:38.573Z,100401.38
2023-03-18T08:10:07.159Z,100378.19
2023-03-18T08:12:49.336Z,100395.91
2023-03-18T08:15:20.766Z,100391.88
2023-03-18T08:17:52.998Z,100367.31
2023-03-18T08:20:21.735Z,100366.00
2023-03-18T08:22:50.269Z,100381.88
2023-03-18T08:25:18.480Z,100416.53
2023-03-18T08:27:46.387Z,100404.09
2023-03-18T08:30:15.224Z,100413.50
2023-03-18T08:32:45.320Z,100412.16
2023-03-18T08:35:13.671Z,100403.13
2023-03-18T08:37:42.938Z,100400.41
2023-03-18T08:40:11.950Z,100398.25
2023-03-18T08:42:39.856Z,100377.69
2023-03-18T08:45:08.501Z,100402.97
2023-03-18T08:47:37.841Z,100399.44
2023-03-18T08:50:06.388Z,100333.31
2023-03-18T08:52:34.215Z,100406.66
2023-03-18T08:55:02.503Z,100414.31
2023-03-18T08:57:30.266Z,100373.78
2023-03-18T08:59:58.346Z,100407.25
2023-03-18T09:02:26.505Z,100408.06
2023-03-18T09:04:55.966Z,100430.72
2023-03-18T09:07:23.737Z,100371.28
2023-03-18T09:09:52.251Z,100409.63
2023-03-18T09:12:20.337Z,100420.84
2023-03-18T09:14:49.339Z,100425.19
2023-03-18T09:17:17.196Z,100367.66
2023-03-18T09:19:45.686Z,100417.25
2023-03-18T09:22:13.451Z,100420.19
2023-03-18T09:24:41.870Z,100410.69
2023-03-18T09:27:10.589Z,100408.53
2023-03-18T09:29:38.643Z,100436.19
2023-03-18T09:32:08.615Z,100430.81
2023-03-18T09:34:37.861Z,100444.34
2023-03-18T09:37:05.734Z,100387.16
2023-03-18T09:39:33.598Z,100414.75
2023-03-18T09:42:05.644Z,100438.44
2023-03-18T09:44:36.087Z,100435.13
2023-03-18T09:47:10.901Z,100434.88
2023-03-18T09:50:15.835Z,100437.28
2023-03-18T09:52:48.466Z,100438.91
2023-03-18T09:55:27.771Z,100428.34
2023-03-18T09:58:03.655Z,100411.38
2023-03-18T10:00:38.641Z,100437.78
2023-03-18T10:03:11.043Z,100447.88
2023-03-18T10:05:54.640Z,100453.63
2023-03-18T10:08:42.486Z,100445.47
2023-03-18T10:11:35.619Z,100355.47
2023-03-18T10:14:07.461Z,100442.22
2023-03-18T10:16:49.143Z,100442.22
2023-03-18T10:19:17.161Z,100443.31
2023-03-18T10:21:54.760Z,100440.59
2023-03-18T10:24:49.028Z,100447.38
2023-03-18T10:27:35.150Z,100414.16
2023-03-18T10:30:30.583Z,100430.25
2023-03-18T10:33:15.619Z,100439.72
2023-03-18T10:35:57.672Z,100441.03
2023-03-18T10:38:34.380Z,100443.75
2023-03-18T10:41:02.690Z,100431.25
2023-03-18T10:43:33.640Z,100445.09
2023-03-18T10:46:07.673Z,100437.72
2023-03-18T10:48:42.560Z,100437.19
2023-03-18T10:51:34.015Z,100445.38
2023-03-18T10:54:10.254Z,100445.38
2023-03-18T10:56:38.555Z,100443.75
2023-03-18T10:59:15.441Z,100447.00
2023-03-18T11:01:47.465Z,100436.13
2023-03-18T11:04:19.256Z,100432.03
2023-03-18T11:06:52.009Z,100424.19
2023-03-18T11:09:22.769Z,100374.41
2023-03-18T11:11:56.992Z,100427.03
2023-03-18T11:14:32.355Z,100435.63
2023-03-18T11:17:05.942Z,100426.84
2023-03-18T11:19:39.778Z,100442.50
2023-03-18T11:22:10.593Z,100443.81
2023-03-18T11:24:39.940Z,100428.81
2023-03-18T11:27:14.591Z,100447.66
2023-03-18T11:29:46.796Z,100432.34
2023-03-18T11:32:33.248Z,100406.22
2023-03-18T11:35:03.058Z,100449.41
2023-03-18T11:37:35.771Z,100459.78
2023-03-18T11:40:14.544Z,100457.16
2023-03-18T11:42:44.206Z,100445.88
2023-03-18T11:45:50.985Z,100453.81
2023-03-18T11:48:43.399Z,100443.59
2023-03-18T11:51:38.178Z,100446.47
2023-03-18T11:54:28.794Z,100440.72
2023-03-18T11:57:23.805Z,100428.81
2023-03-18T12:00:20.259Z,100430.88
2023-03-18T12:03:25.943Z,100426.97
2023-03-18T12:06:09.071Z,100418.72
2023-03-18T12:08:51.692Z,100365.06
2023-03-18T12:11:38.630Z,100412.16
2023-03-18T12:14:31.702Z,100411.16
2023-03-18T12:17:04.053Z,100407.91
2023-03-18T12:19:42.605Z,100373.63
2023-03-18T12:22:19.264Z,100396.28
2023-03-18T12:25:09.263Z,100383.47
2023-03-18T12:27:58.882Z,100385.59
2023-03-18T12:30:45.636Z,100374.03
2023-03-18T12:33:19.430Z,100368.22
2023-03-18T12:36:09.297Z,100358.03
2023-03-18T12:38:40.289Z,100363.38
2023-03-18T12:41:14.029Z,100356.25
2023-03-18T12:44:01.148Z,100352.81
2023-03-18T12:47:06.834Z,100334.25
2023-03-18T12:49:45.228Z,100335.47
2023-03-18T12:52:23.469Z,100318.50
2023-03-18T12:54:59.782Z,100323.16
2023-03-18T12:57:49.348Z,100302.16
2023-03-18T13:00:27.387Z,100319.13
2023-03-18T13:03:09.433Z,100316.38
2023-03-18T13:05:47.606Z,100294.06
2023-03-18T13:08:27.868Z,100304.19
2023-03-18T13:11:36.357Z,100297.94
2023-03-18T13:14:39.357Z,100266.81
2023-03-18T13:17:40.221Z,100279.72
2023-03-18T13:20:31.987Z,100297.22
2023-03-18T13:23:08.854Z,100286.81
2023-03-18T13:25:57.879Z,100293.25
2023-03-18T13:28:43.994Z,100304.88
2023-03-18T13:31:50.649Z,100283.78
2023-03-18T13:34:26.734Z,100289.94
2023-03-18T13:37:27.126Z,100289.25
2023-03-18T13:40:10.395Z,100282.19
2023-03-18T13:42:40.178Z,100277.53
2023-03-18T13:45:18.990Z,100279.72
2023-03-18T13:47:46.791Z,100281.94
2023-03-18T13:50:20.379Z,100284.38
2023-03-18T13:52:49.708Z,100255.66
2023-03-18T13:55:29.846Z,100280.72
2023-03-18T13:58:23.932Z,100287.09
2023-03-18T14:00:54.768Z,100288.81
2023-03-18T14:03:30.761Z,100296.50
2023-03-18T14:06:10.561Z,100298.91
2023-03-18T14:08:47.422Z,100304.34
2023-03-18T14:11:19.843Z,100302.53
2023-03-18T14:13:47.749Z,100296.88
2023-03-18T14:16:21.212Z,100295.47
2023-03-18T14:19:19.302Z,100266.84
2023-03-18T14:21:53.343Z,100296.28
2023-03-18T14:24:26.189Z,100231.22
2023-03-18T14:27:06.831Z,100283.16
2023-03-18T14:29:47.895Z,100286.19
2023-03-18T14:32:34.936Z,100281.53
2023-03-18T14:35:49.482Z,100278.50
2023-03-18T14:38:49.851Z,100264.59
2023-03-18T14:41:30.122Z,100236.28
2023-03-18T14:44:22.534Z,100282.34
2023-03-18T14:46:58.520Z,100281.03
2023-03-18T14:49:32.752Z,100271.75
2023-03-18T14:52:06.199Z,100286.97
2023-03-18T14:54:42.769Z,100282.66
2023-03-18T14:57:11.245Z,100284.56
2023-03-18T14:59:38.940Z,100280.03
2023-03-18T15:02:15.388Z,100238.72
2023-03-18T15:04:53.202Z,100264.59
2023-03-18T15:07:27.442Z,100266.69
2023-03-18T15:09:55.292Z,100262.16
2023-03-18T15:12:28.830Z,100228.50
2023-03-18T15:14:56.851Z,100205.81
2023-03-18T15:17:27.651Z,100274.28
2023-03-18T15:20:00.734Z,100199.44
2023-03-18T15:22:33.068Z,100269.94
2023-03-18T15:25:08.359Z,100220.34
2023-03-18T15:27:37.077Z,100265.00
2023-03-18T15:30:11.914Z,100260.34
2023-03-18T15:32:50.236Z,100248.84
2023-03-18T15:35:29.252Z,100225.00
2023-03-18T15:38:11.205Z,100251.78
2023-03-18T15:40:54.420Z,100241.38
2023-03-18T15:43:43.287Z,100259.84
2023-03-18T15:46:18.902Z,100257.94
2023-03-18T15:48:54.944Z,100255.22
2023-03-18T15:51:27.640Z,100155.34
2023-03-18T15:53:59.327Z,100238.97
2023-03-18T15:56:31.727Z,100251.50
2023-03-18T15:59:14.780Z,100239.56
2023-03-18T16:01:42.951Z,100218.06
2023-03-18T16:04:17.170Z,100238.97
2023-03-18T16:06:45.426Z,100165.56
2023-03-18T16:09:25.361Z,100238.16
2023-03-18T16:11:58.412Z,100226.66
2023-03-18T16:14:33.489Z,100253.09
2023-03-18T16:17:01.850Z,100221.38
2023-03-18T16:19:31.219Z,100256.31
2023-03-18T16:22:00.802Z,100256.00
2023-03-18T16:24:28.642Z,100260.88
2023-03-18T16:26:57.698Z,100263.09
2023-03-18T16:29:32.022Z,100256.31
2023-03-18T16:32:01.000Z,100214.91
2023-03-18T16:34:28.940Z,100247.84
2023-03-18T16:36:57.251Z,100247.56
2023-03-18T16:39:36.261Z,100243.63
2023-03-18T16:42:06.857Z,100259.56
2023-03-18T16:44:35.849Z,100219.84
2023-03-18T16:47:03.626Z,100251.06
2023-03-18T16:49:34.656Z,100261.34
2023-03-18T16:52:06.983Z,100256.81
2023-03-18T16:54:34.920Z,100230.16
2023-03-18T16:57:04.717Z,100275.69
2023-03-18T16:59:35.425Z,100286.59
2023-03-18T17:02:17.556Z,100248.91
2023-03-18T17:04:45.286Z,100253.31
2023-03-18T17:07:14.201Z,100270.19
2023-03-18T17:09:42.180Z,100278.88
2023-03-18T17:12:12.223Z,100297.78
2023-03-18T17:14:51.986Z,100318.78
2023-03-18T17:17:28.122Z,100318.78
2023-03-18T17:19:57.316Z,100326.16
2023-03-18T17:22:28.426Z,100150.41
2023-03-18T17:24:56.983Z,100344.41
2023-03-18T17:27:40.283Z,100351.56
2023-03-18T17:30:36.391Z,100355.19
2023-03-18T17:33:16.865Z,100352.75
2023-03-18T17:35:44.910Z,100336.66
2023-03-18T17:38:15.125Z,100336.13
2023-03-18T17:40:43.626Z,100361.44
2023-03-18T17:43:19.422Z,100261.91
2023-03-18T17:45:47.969Z,100321.81
2023-03-18T17:48:20.868Z,100378.38
2023-03-18T17:50:51.798Z,100316.38
2023-03-18T17:53:44.291Z,100381.72
2023-03-18T17:56:14.966Z,100379.59
2023-03-18T17:59:02.033Z,100390.69
2023-03-18T18:01:30.422Z,100380.75
2023-03-18T18:04:00.021Z,100339.25
2023-03-18T18:06:29.823Z,100355.72
2023-03-18T18:09:02.570Z,100411.16
2023-03-18T18:11:32.862Z,100360.44
2023-03-18T18:14:22.039Z,100365.88
2023-03-18T18:16:50.771Z,100401.19
2023-03-18T18:19:19.799Z,100384.22
2023-03-18T18:21:49.520Z,100393.31
2023-03-18T18:24:28.010Z,100356.63
2023-03-18T18:26:56.926Z,100402.47
2023-03-18T18:29:28.476Z,100368.69
2023-03-18T18:31:59.446Z,100411.81
2023-03-18T18:34:27.590Z,100341.63
2023-03-18T18:36:55.477Z,100428.44
2023-03-18T18:39:23.369Z,100407.47
2023-03-18T18:41:51.512Z,100388.84
2023-03-18T18:44:19.700Z,100420.84
2023-03-18T18:46:47.810Z,100376.91
2023-03-18T18:49:22.825Z,100416.69
2023-03-18T18:51:55.553Z,100415.28
2023-03-18T18:54:24.664Z,100422.66
2023-03-18T18:56:53.409Z,100416.09
2023-03-18T18:59:23.267Z,100416.91
2023-03-18T19:01:52.376Z,100409.69
2023-03-18T19:04:21.998Z,100426.97
2023-03-18T19:06:51.896Z,100402.50
2023-03-18T19:09:24.016Z,100420.41
2023-03-18T19:11:53.473Z,100387.50
2023-03-18T19:14:27.497Z,100433.13
2023-03-18T19:17:00.788Z,100440.47
2023-03-18T19:19:31.313Z,100356.09
2023-03-18T19:21:59.179Z,100433.28
2023-03-18T19:24:32.747Z,100390.16
2023-03-18T19:27:04.357Z,100428.13
2023-03-18T19:29:35.480Z,100441.56
2023-03-18T19:32:03.512Z,100431.66
2023-03-18T19:34:32.610Z,100426.41
2023-03-18T19:37:03.216Z,100421.75
2023-03-18T19:39:30.949Z,100428.00
2023-03-18T19:41:58.951Z,100434.47
2023-03-18T19:44:27.335Z,100474.34
2023-03-18T19:46:59.510Z,100474.53
2023-03-18T19:49:39.392Z,100501.81
2023-03-18T19:52:28.062Z,100485.75
2023-03-18T19:54:57.811Z,100475.75
2023-03-18T19:57:29.008Z,100462.94
2023-03-18T19:59:58.630Z,100495.09
2023-03-18T20:02:27.980Z,100506.84
2023-03-18T20:04:58.550Z,100464.72
2023-03-18T20:07:29.781Z,100467.03
2023-03-18T20:09:58.960Z,100481.00
2023-03-18T20:12:44.677Z,100512.06
2023-03-18T20:15:22.081Z,100495.22
2023-03-18T20:17:52.412Z,100464.41
2023-03-18T20:20:24.076Z,100436.91
2023-03-18T20:22:56.711Z,100518.25
2023-03-18T20:25:36.262Z,100517.88
2023-03-18T20:28:06.497Z,100503.81
2023-03-18T20:30:39.212Z,100480.41
2023-03-18T20:33:08.078Z,100437.09
2023-03-18T20:35:39.359Z,100507.50
2023-03-18T20:38:33.516Z,100486.44
2023-03-18T20:41:02.018Z,100511.56
2023-03-18T20:43:31.042Z,100511.94
2023-03-18T20:46:01.108Z,100523.66
2023-03-18T20:48:29.008Z,100538.59
2023-03-18T20:50:58.206Z,100488.94
2023-03-18T20:53:31.838Z,100565.91
2023-03-18T20:56:02.236Z,100535.66
2023-03-18T20:58:31.471Z,100564.28
2023-03-18T21:00:59.654Z,100510.50
2023-03-18T21:03:34.776Z,100561.63
2023-03-18T21:06:04.282Z,100567.88
2023-03-18T21:08:33.922Z,100548.47
2023-03-18T21:11:02.855Z,100550.28
2023-03-18T21:13:34.109Z,100555.72
2023-03-18T21:16:04.354Z,100568.94
2023-03-18T21:18:32.208Z,100579.84
2023-03-18T21:21:01.322Z,100582.81
2023-03-18T21:23:32.051Z,100560.50
2023-03-18T21:26:01.567Z,100590.78
2023-03-18T21:28:31.068Z,100529.00
2023-03-18T21:30:59.598Z,100565.78
2023-03-18T21:33:31.385Z,100545.00
2023-03-18T21:35:59.957Z,100589.34
2023-03-18T21:38:30.720Z,100601.28
2023-03-18T21:41:01.027Z,100567.78
2023-03-18T21:43:34.046Z,100549.16
2023-03-18T21:46:03.489Z,100600.75
2023-03-18T21:48:31.934Z,100584.28
2023-03-18T21:51:00.134Z,100583.50
2023-03-18T21:53:28.977Z,100611.38
2023-03-18T21:55:56.786Z,100597.56
2023-03-18T21:58:27.761Z,100613.00
2023-03-18T22:00:58.412Z,100605.69
2023-03-18T22:03:29.863Z,100601.09
2023-03-18T22:05:58.005Z,100613.84
2023-03-18T22:08:26.601Z,100585.19
2023-03-18T22:10:54.475Z,100542.66
2023-03-18T22:13:24.198Z,100613.00
2023-03-18T22:15:54.334Z,100599.78
2023-03-18T22:18:22.873Z,100597.09
2023-03-18T22:20:51.753Z,100615.72
2023-03-18T22:23:28.616Z,100617.63
2023-03-18T22:25:57.937Z,100614.91
2023-03-18T22:28:28.303Z,100589.00
2023-03-18T22:30:57.108Z,100614.38
2023-03-18T22:33:28.957Z,100609.50
2023-03-18T22:35:57.348Z,100611.72
2023-03-18T22:38:26.862Z,100586.84
2023-03-18T22:40:57.176Z,100600.88
2023-03-18T22:43:32.222Z,100606.31
2023-03-18T22:46:03.812Z,100604.19
2023-03-18T22:48:31.782Z,100604.75
2023-03-18T22:51:01.273Z,100603.94
2023-03-18T22:53:42.844Z,100565.25
2023-03-18T22:56:14.493Z,100596.66
2023-03-18T22:58:42.664Z,100579.88
2023-03-18T23:01:16.577Z,100606.97
2023-03-18T23:03:44.950Z,100590.75
2023-03-18T23:06:17.000Z,100588.59
2023-03-18T23:08:45.810Z,100556.69
2023-03-18T23:11:14.193Z,100600.94
2023-03-18T23:13:48.136Z,100552.59
2023-03-18T23:16:18.308Z,100604.47
2023-03-18T23:18:46.617Z,100579.91
2023-03-18T23:21:22.115Z,100538.28
2023-03-18T23:23:50.716Z,100561.00
2023-03-18T23:26:20.994Z,100588.91
2023-03-18T23:28:49.717Z,100523.81
2023-03-18T23:31:17.861Z,100610.56
2023-03-18T23:33:45.855Z,100597.56
2023-03-18T23:36:14.146Z,100614.69
2023-03-18T23:38:42.753Z,100559.94
2023-03-18T23:41:11.097Z,100617.88
2023-03-18T23:43:39.038Z,100591.28
2023-03-18T23:46:07.622Z,100604.00
2023-03-18T23:48:36.008Z,100571.53
2023-03-18T23:51:04.038Z,100592.59
2023-03-18T23:53:32.272Z,100533.47
2023-03-18T23:56:00.056Z,100601.34
2023-03-18T23:58:27.923Z,100613.22
